.
WxDataArchive / Data Records for 2015-04-11
2015-04-10 April 2015 2015-04-12

Data Records for Saturday, 11 April 2015

Time	Temp	Chill	HIndex	Humid	Dewpt	 Wind 	HiWind	WindDir	Rain 	Barom
-----	----	-----	------	-----	-----	------	------	-------	-----	-----
00:00	43.8	43.8	43.8	75	36.4	2	5	315	0.00	30.079 
00:05	43.8	43.8	43.8	75	36.4	2	5	270	0.00	30.079 
00:10	43.6	43.6	43.6	75	36.2	1	4	315	0.00	30.079 
00:15	43.5	43.5	43.5	75	36.1	2	4	315	0.00	30.087 
00:20	43.3	43.3	43.3	74	35.6	2	4	270	0.00	30.087 
00:25	43.2	43.2	43.2	74	35.5	1	4	315	0.00	30.087 
00:30	43.1	43.1	43.1	75	35.7	1	3	292	0.00	30.089 
00:35	43.1	43.1	43.1	75	35.7	1	3	292	0.00	30.089 
00:40	42.9	42.9	42.9	75	35.5	1	3	315	0.00	30.089 
00:45	42.8	42.8	42.8	76	35.8	1	3	315	0.00	30.099 
00:50	42.5	42.5	42.5	76	35.5	1	4	315	0.00	30.099 
00:55	42.3	42.3	42.3	76	35.3	1	5	292	0.00	30.099 
01:00	42.3	42.3	42.3	76	35.3	1	4	292	0.00	30.106 
01:05	42.2	42.2	42.2	77	35.5	0	2	292	0.00	30.106 
01:10	42.1	42.1	42.1	77	35.4	0	3	292	0.00	30.106 
01:15	41.9	41.9	41.9	77	35.2	1	5	338	0.00	30.106 
01:20	41.8	41.8	41.8	77	35.1	1	3	338	0.00	30.106 
01:25	41.6	41.6	41.6	78	35.3	1	3	315	0.00	30.106 
01:30	41.5	41.5	41.5	78	35.2	1	3	315	0.00	30.110 
01:35	41.3	41.3	41.3	78	35.0	1	3	315	0.00	30.110 
01:40	41.3	41.3	41.3	79	35.3	0	3	315	0.00	30.110 
01:45	41.1	41.1	41.1	79	35.1	0	2	315	0.00	30.121 
01:50	41.1	41.1	41.1	80	35.4	0	3	315	0.00	30.121 
01:55	40.9	40.9	40.9	80	35.2	0	2	315	0.00	30.121 
02:00	40.8	40.8	40.8	80	35.1	0	3	315	0.00	30.129 
02:05	40.8	40.8	40.8	81	35.4	1	3	315	0.00	30.129 
02:10	40.6	40.6	40.6	81	35.2	1	4	315	0.00	30.129 
02:15	40.6	40.6	40.6	81	35.2	1	3	315	0.00	30.129 
02:20	40.6	40.6	40.6	81	35.2	1	3	315	0.00	30.129 
02:25	40.5	40.5	40.5	81	35.1	0	3	315	0.00	30.129 
02:30	40.5	40.5	40.5	82	35.4	1	4	315	0.00	30.130 
02:35	40.3	40.3	40.3	82	35.2	0	2	315	0.00	30.130 
02:40	40.3	40.3	40.3	82	35.2	0	2	315	0.00	30.130 
02:45	40.2	40.2	40.2	82	35.2	0	3	315	0.00	30.132 
02:50	40.2	40.2	40.2	83	35.5	1	3	292	0.00	30.132 
02:55	40.1	40.1	40.1	83	35.4	0	2	292	0.00	30.132 
03:00	40.1	40.1	40.1	83	35.4	0	2	292	0.00	30.130 
03:05	39.9	39.9	39.9	83	35.2	0	1	292	0.00	30.130 
03:10	39.8	39.8	39.8	84	35.4	0	2	292	0.00	30.130 
03:15	39.8	39.8	39.8	84	35.4	0	2	292	0.00	30.135 
03:20	39.6	39.6	39.6	84	35.2	0	1	292	0.00	30.135 
03:25	39.5	39.5	39.5	84	35.1	0	2	292	0.00	30.135 
03:30	39.5	39.5	39.5	84	35.1	0	1	292	0.00	30.138 
03:35	39.2	39.2	39.2	85	35.1	0	1	292	0.00	30.138 
03:40	39.2	39.2	39.2	85	35.1	0	1	292	0.00	30.138 
03:45	39.2	39.2	39.2	85	35.1	0	1	292	0.00	30.133 
03:50	39.1	39.1	39.1	85	35.0	0	1	292	0.00	30.133 
03:55	38.9	38.9	38.9	85	34.8	0	1	292	0.00	30.133 
04:00	38.8	38.8	38.8	86	35.0	0	1	292	0.00	30.141 
04:05	38.6	38.6	38.6	86	34.8	0	2	292	0.00	30.141 
04:10	38.5	38.5	38.5	86	34.7	0	2	292	0.00	30.141 
04:15	38.5	38.5	38.5	86	34.7	0	2	292	0.00	30.146 
04:20	38.5	38.5	38.5	87	35.0	0	2	292	0.00	30.146 
04:25	38.3	38.3	38.3	87	34.8	0	1	292	0.00	30.146 
04:30	38.3	38.3	38.3	87	34.8	0	0	---	0.00	30.149 
04:35	38.2	38.2	38.2	87	34.7	0	0	---	0.00	30.149 
04:40	38.0	38.0	38.0	87	34.5	0	0	---	0.00	30.149 
04:45	37.9	37.9	37.9	87	34.4	0	1	292	0.00	30.150 
04:50	37.8	37.8	37.8	87	34.3	0	0	---	0.00	30.150 
04:55	37.6	37.6	37.6	87	34.1	0	0	---	0.00	30.150 
05:00	37.6	37.6	37.6	88	34.4	0	0	---	0.00	30.153 
05:05	37.5	37.5	37.5	88	34.3	0	1	292	0.00	30.153 
05:10	37.3	37.3	37.3	88	34.1	0	0	---	0.00	30.153 
05:15	37.3	37.3	37.3	88	34.1	0	0	---	0.00	30.161 
05:20	37.2	37.2	37.2	88	34.0	0	0	---	0.00	30.161 
05:25	37.0	37.0	37.0	88	33.8	0	0	---	0.00	30.161 
05:30	36.8	36.8	36.8	88	33.6	0	0	---	0.00	30.165 
05:35	36.5	36.5	36.5	88	33.3	0	0	---	0.00	30.165 
05:40	36.0	36.0	36.0	88	32.8	0	0	---	0.00	30.165 
05:45	35.8	35.8	35.8	88	32.6	0	0	---	0.00	30.175 
05:50	35.5	35.5	35.5	88	32.3	0	0	---	0.00	30.175 
05:55	35.2	35.2	35.2	88	32.0	0	0	---	0.00	30.175 
06:00	35.0	35.0	35.0	88	31.8	0	0	---	0.00	30.178 
06:05	35.0	35.0	35.0	89	32.1	0	0	---	0.00	30.178 
06:10	34.9	34.9	34.9	89	32.0	0	0	---	0.00	30.178 
06:15	34.7	34.7	34.7	89	31.8	0	0	---	0.00	30.183 
06:20	34.6	34.6	34.6	89	31.7	0	0	---	0.00	30.183 
06:25	34.4	34.4	34.4	89	31.5	0	0	---	0.00	30.183 
06:30	34.3	34.3	34.3	89	31.4	0	0	---	0.00	30.184 
06:35	34.1	34.1	34.1	89	31.2	0	0	---	0.00	30.184 
06:40	34.0	34.0	34.0	89	31.1	0	0	---	0.00	30.184 
06:45	33.8	33.8	33.8	89	30.9	0	0	---	0.00	30.194 
06:50	33.7	33.7	33.7	89	30.8	0	0	---	0.00	30.194 
06:55	33.4	33.4	33.4	89	30.5	0	0	---	0.00	30.194 
07:00	33.2	33.2	33.2	89	30.3	0	0	---	0.00	30.199 
07:05	33.1	33.1	33.1	90	30.5	0	0	---	0.00	30.199 
07:10	33.1	33.1	33.1	90	30.5	0	0	---	0.00	30.199 
07:15	33.1	33.1	33.1	90	30.5	0	0	---	0.00	30.214 
07:20	33.1	33.1	33.1	90	30.5	0	0	---	0.00	30.214 
07:25	33.2	33.2	33.2	90	30.6	0	0	---	0.00	30.214 
07:30	33.5	33.5	33.5	91	31.2	0	0	---	0.00	30.218 
07:35	33.8	33.8	33.8	91	31.5	0	0	---	0.00	30.218 
07:40	34.1	34.1	34.1	91	31.8	0	0	---	0.00	30.218 
07:45	34.4	34.4	34.4	92	32.3	0	0	---	0.00	30.219 
07:50	35.0	35.0	35.0	92	32.9	0	0	---	0.00	30.219 
07:55	35.8	35.8	35.8	92	33.7	0	0	---	0.00	30.219 
08:00	36.3	36.3	36.3	92	34.2	0	1	292	0.00	30.224 
08:05	36.9	36.9	36.9	92	34.8	0	1	292	0.00	30.224 
08:10	37.3	37.3	37.3	92	35.2	0	1	292	0.00	30.224 
08:15	38.0	38.0	38.0	93	36.2	0	0	---	0.00	30.234 
08:20	38.6	38.6	38.6	92	36.5	0	1	292	0.00	30.234 
08:25	39.1	39.1	39.1	92	37.0	0	1	292	0.00	30.234 
08:30	39.5	39.5	39.5	92	37.4	0	1	292	0.00	30.234 
08:35	39.8	39.8	39.8	91	37.4	0	1	292	0.00	30.234 
08:40	40.2	40.2	40.2	91	37.8	0	1	292	0.00	30.234 
08:45	40.8	40.8	40.8	90	38.1	0	1	292	0.00	30.241 
08:50	41.2	41.2	41.2	88	37.9	0	2	292	0.00	30.241 
08:55	41.6	41.6	41.6	87	38.0	0	1	292	0.00	30.241 
09:00	42.1	42.1	42.1	85	37.9	0	1	292	0.00	30.245 
09:05	42.5	42.5	42.5	83	37.7	0	2	292	0.00	30.245 
09:10	43.1	43.1	43.1	81	37.7	0	2	292	0.00	30.245 
09:15	43.5	43.5	43.5	79	37.4	0	2	292	0.00	30.249 
09:20	43.8	43.8	43.8	77	37.1	1	2	292	0.00	30.249 
09:25	44.2	44.2	44.2	76	37.1	0	2	292	0.00	30.249 
09:30	44.6	44.6	44.6	75	37.2	0	2	292	0.00	30.247 
09:35	45.2	45.2	45.2	74	37.4	1	2	292	0.00	30.247 
09:40	45.8	45.8	45.8	72	37.3	0	2	292	0.00	30.247 
09:45	46.4	46.4	46.4	72	37.9	1	2	292	0.00	30.248 
09:50	47.0	47.0	47.0	70	37.7	1	2	292	0.00	30.248 
09:55	47.4	47.4	47.4	68	37.4	1	3	292	0.00	30.248 
10:00	47.7	47.7	47.7	67	37.3	1	2	292	0.00	30.246 
10:05	48.2	48.2	48.2	67	37.8	0	1	292	0.00	30.246 
10:10	48.3	48.3	48.3	64	36.7	1	4	270	0.00	30.246 
10:15	48.9	48.9	48.9	62	36.5	1	4	315	0.00	30.249 
10:20	49.2	49.2	49.2	62	36.7	1	3	292	0.00	30.249 
10:25	49.5	49.5	49.5	61	36.6	1	4	292	0.00	30.249 
10:30	49.9	49.9	49.9	57	35.3	2	4	270	0.00	30.249 
10:35	50.4	50.4	50.4	58	36.2	1	3	270	0.00	30.249 
10:40	50.8	50.8	50.8	58	36.6	1	3	270	0.00	30.249 
10:45	51.1	51.1	51.1	53	34.6	2	5	270	0.00	30.249 
10:50	51.6	51.6	51.6	53	35.0	1	3	270	0.00	30.249 
10:55	52.0	52.0	52.0	53	35.4	2	3	270	0.00	30.249 
11:00	52.3	52.3	52.3	53	35.7	2	5	270	0.00	30.247 
11:05	52.5	52.5	52.5	51	34.9	2	4	292	0.00	30.247 
11:10	52.8	52.8	52.8	51	35.2	2	5	292	0.00	30.247 
11:15	52.9	52.9	52.9	51	35.3	2	4	270	0.00	30.248 
11:20	53.2	53.2	53.2	50	35.0	2	4	270	0.00	30.248 
11:25	53.3	53.3	53.3	52	36.1	2	6	292	0.00	30.248 
11:30	53.8	53.8	53.8	52	36.6	2	5	292	0.00	30.245 
11:35	54.1	54.1	54.1	52	36.9	1	4	292	0.00	30.245 
11:40	54.4	54.4	54.4	50	36.2	2	5	270	0.00	30.245 
11:45	54.4	54.4	54.4	48	35.1	3	5	270	0.00	30.247 
11:50	54.7	54.7	54.7	49	35.9	1	4	292	0.00	30.247 
11:55	55.0	55.0	55.0	49	36.2	2	5	292	0.00	30.247 
12:00	55.3	55.3	55.3	48	35.9	1	4	315	0.00	30.250 
12:05	55.3	55.3	55.3	49	36.5	1	4	270	0.00	30.250 
12:10	55.7	55.7	55.7	49	36.8	2	4	248	0.00	30.250 
12:15	56.2	56.2	56.2	49	37.3	1	6	270	0.00	30.246 
12:20	56.5	56.5	56.5	49	37.6	2	4	270	0.00	30.246 
12:25	56.5	56.5	56.5	47	36.5	1	4	270	0.00	30.246 
12:30	56.5	56.5	56.5	49	37.6	2	5	292	0.00	30.244 
12:35	56.7	56.7	56.7	47	36.7	1	3	292	0.00	30.244 
12:40	56.9	56.9	56.9	46	36.3	2	5	248	0.00	30.244 
12:45	56.9	56.9	56.9	47	36.9	1	3	248	0.00	30.243 
12:50	57.2	57.2	57.2	45	36.1	1	3	248	0.00	30.243 
12:55	57.3	57.3	57.3	46	36.7	1	3	248	0.00	30.243 
13:00	57.8	57.8	57.8	44	36.0	2	5	248	0.00	30.235 
13:05	57.6	57.6	57.6	47	37.5	1	4	338	0.00	30.235 
13:10	58.1	58.1	58.1	44	36.3	2	5	315	0.00	30.235 
13:15	58.3	58.3	58.3	44	36.5	3	7	270	0.00	30.231 
13:20	58.4	58.4	58.4	40	34.2	2	6	270	0.00	30.231 
13:25	58.1	58.1	58.1	38	32.6	2	6	270	0.00	30.231 
13:30	57.6	57.6	57.6	39	32.8	2	5	292	0.00	30.230 
13:35	58.3	58.3	58.3	40	34.1	1	5	270	0.00	30.230 
13:40	58.9	58.9	58.9	40	34.6	2	5	270	0.00	30.230 
13:45	59.2	59.2	59.2	39	34.3	3	6	270	0.00	30.227 
13:50	59.2	59.2	59.2	37	32.9	2	5	270	0.00	30.227 
13:55	59.5	59.5	59.5	35	31.8	2	5	315	0.00	30.227 
14:00	59.9	59.9	59.9	35	32.2	2	5	270	0.00	30.222 
14:05	59.5	59.5	59.5	34	31.1	2	6	338	0.00	30.222 
14:10	59.5	59.5	59.5	37	33.2	2	7	270	0.00	30.222 
14:15	59.6	59.6	59.6	37	33.3	2	6	270	0.00	30.215 
14:20	59.2	59.2	59.2	35	31.6	2	4	292	0.00	30.215 
14:25	59.5	59.5	59.5	37	33.2	2	6	248	0.00	30.215 
14:30	59.3	59.3	59.3	35	31.7	1	4	292	0.00	30.213 
14:35	59.6	59.6	59.6	38	34.0	2	7	270	0.00	30.213 
14:40	59.9	59.9	59.9	36	32.9	1	2	270	0.00	30.213 
14:45	60.2	60.2	60.2	33	31.0	3	6	270	0.00	30.212 
14:50	59.9	59.9	59.9	33	30.7	2	5	292	0.00	30.212 
14:55	59.8	59.8	59.8	33	30.6	2	6	0	0.00	30.212 
15:00	59.9	59.9	59.9	36	32.9	2	6	338	0.00	30.208 
15:05	60.2	60.2	60.2	35	32.4	1	5	270	0.00	30.208 
15:10	60.5	60.5	60.5	33	31.3	1	3	315	0.00	30.208 
15:15	60.9	60.9	60.9	34	32.3	1	4	315	0.00	30.201 
15:20	60.9	60.9	60.9	33	31.6	2	6	315	0.00	30.201 
15:25	60.7	60.7	60.7	33	31.4	1	4	292	0.00	30.201 
15:30	61.2	61.2	61.2	32	31.1	2	5	270	0.00	30.195 
15:35	61.5	61.5	61.5	31	30.6	2	4	270	0.00	30.195 
15:40	61.2	61.2	61.2	32	31.1	2	6	338	0.00	30.195 
15:45	61.2	61.2	61.2	32	31.1	3	5	292	0.00	30.196 
15:50	61.3	61.3	61.3	33	32.0	1	4	270	0.00	30.196 
15:55	61.3	61.3	61.3	31	30.4	2	7	270	0.00	30.196 
16:00	61.0	61.0	61.0	33	31.7	1	4	315	0.00	30.190 
16:05	60.5	60.5	60.5	33	31.3	2	7	315	0.00	30.190 
16:10	60.9	60.9	60.9	32	30.8	3	6	270	0.00	30.190 
16:15	61.3	61.3	61.3	32	31.2	2	5	270	0.00	30.186 
16:20	61.5	61.5	61.5	31	30.6	2	4	270	0.00	30.186 
16:25	61.2	61.2	61.2	32	31.1	1	8	315	0.00	30.186 
16:30	61.3	61.3	61.3	34	32.7	2	9	270	0.00	30.188 
16:35	61.5	61.5	61.5	31	30.6	0	2	248	0.00	30.188 
16:40	61.6	61.6	61.6	31	30.7	1	4	248	0.00	30.188 
16:45	61.5	61.5	61.5	31	30.6	2	6	248	0.00	30.185 
16:50	61.6	61.6	61.6	32	31.5	1	4	270	0.00	30.185 
16:55	61.5	61.5	61.5	31	30.6	1	2	292	0.00	30.185 
17:00	61.5	61.5	61.5	31	30.6	1	4	292	0.00	30.181 
17:05	61.5	61.5	61.5	31	30.6	2	9	338	0.00	30.181 
17:10	61.8	61.8	61.8	30	30.0	2	4	292	0.00	30.181 
17:15	61.6	61.6	61.6	30	29.9	2	6	315	0.00	30.184 
17:20	61.5	61.5	61.5	31	30.6	2	4	270	0.00	30.184 
17:25	61.6	61.6	61.6	31	30.7	0	3	270	0.00	30.184 
17:30	62.0	62.0	62.0	30	30.2	1	3	270	0.00	30.182 
17:35	62.3	62.3	62.3	30	30.5	1	4	270	0.00	30.182 
17:40	62.0	62.0	62.0	30	30.2	1	3	270	0.00	30.182 
17:45	62.3	62.3	62.3	28	28.8	2	5	270	0.00	30.183 
17:50	62.0	62.0	62.0	28	28.5	2	5	270	0.00	30.183 
17:55	61.6	61.6	61.6	31	30.7	1	3	292	0.00	30.183 
18:00	61.5	61.5	61.5	31	30.6	2	4	315	0.00	30.182 
18:05	61.2	61.2	61.2	32	31.1	1	4	338	0.00	30.182 
18:10	61.2	61.2	61.2	30	29.5	1	4	292	0.00	30.182 
18:15	61.0	61.0	61.0	31	30.2	2	5	270	0.00	30.181 
18:20	60.9	60.9	60.9	29	28.4	2	4	292	0.00	30.181 
18:25	60.5	60.5	60.5	31	29.7	1	4	315	0.00	30.181 
18:30	60.7	60.7	60.7	29	28.3	1	5	315	0.00	30.181 
18:35	60.9	60.9	60.9	28	27.6	2	4	270	0.00	30.181 
18:40	60.9	60.9	60.9	29	28.4	0	2	270	0.00	30.181 
18:45	60.7	60.7	60.7	30	29.1	1	2	270	0.00	30.181 
18:50	60.5	60.5	60.5	30	28.9	1	5	338	0.00	30.181 
18:55	60.4	60.4	60.4	30	28.8	2	3	315	0.00	30.181 
19:00	60.2	60.2	60.2	31	29.5	1	3	315	0.00	30.185 
19:05	60.1	60.1	60.1	30	28.6	1	2	315	0.00	30.185 
19:10	59.9	59.9	59.9	31	29.2	1	2	315	0.00	30.185 
19:15	59.8	59.8	59.8	32	29.9	0	1	315	0.00	30.180 
19:20	59.6	59.6	59.6	32	29.7	0	2	315	0.00	30.180 
19:25	59.5	59.5	59.5	33	30.4	0	2	315	0.00	30.180 
19:30	59.3	59.3	59.3	32	29.4	0	2	315	0.00	30.182 
19:35	59.2	59.2	59.2	33	30.1	0	1	315	0.00	30.182 
19:40	59.0	59.0	59.0	32	29.2	0	2	315	0.00	30.182 
19:45	58.9	58.9	58.9	33	29.9	0	2	315	0.00	30.180 
19:50	58.6	58.6	58.6	32	28.8	0	1	315	0.00	30.180 
19:55	58.4	58.4	58.4	32	28.7	0	1	315	0.00	30.180 
20:00	58.3	58.3	58.3	32	28.6	0	1	315	0.00	30.184 
20:05	58.0	58.0	58.0	33	29.1	0	0	---	0.00	30.184 
20:10	57.6	57.6	57.6	33	28.7	0	0	---	0.00	30.184 
20:15	57.2	57.2	57.2	34	29.1	0	0	---	0.00	30.181 
20:20	56.7	56.7	56.7	36	30.0	0	0	---	0.00	30.181 
20:25	56.3	56.3	56.3	36	29.7	0	0	---	0.00	30.181 
20:30	55.7	55.7	55.7	38	30.5	0	0	---	0.00	30.182 
20:35	55.1	55.1	55.1	39	30.6	0	0	---	0.00	30.182 
20:40	54.4	54.4	54.4	40	30.6	0	0	---	0.00	30.182 
20:45	53.8	53.8	53.8	41	30.7	0	0	---	0.00	30.188 
20:50	53.2	53.2	53.2	43	31.3	0	0	---	0.00	30.188 
20:55	52.6	52.6	52.6	44	31.3	0	0	---	0.00	30.188 
21:00	52.2	52.2	52.2	45	31.5	0	0	---	0.00	30.192 
21:05	51.6	51.6	51.6	45	31.0	0	0	---	0.00	30.192 
21:10	51.1	51.1	51.1	47	31.6	0	0	---	0.00	30.192 
21:15	50.7	50.7	50.7	47	31.2	0	0	---	0.00	30.197 
21:20	50.4	50.4	50.4	48	31.5	0	0	---	0.00	30.197 
21:25	49.8	49.8	49.8	49	31.4	0	0	---	0.00	30.197 
21:30	49.4	49.4	49.4	50	31.5	0	0	---	0.00	30.196 
21:35	49.1	49.1	49.1	51	31.8	0	0	---	0.00	30.196 
21:40	48.8	48.8	48.8	53	32.4	0	0	---	0.00	30.196 
21:45	48.5	48.5	48.5	53	32.2	0	0	---	0.00	30.200 
21:50	48.2	48.2	48.2	54	32.3	0	0	---	0.00	30.200 
21:55	47.7	47.7	47.7	55	32.3	0	0	---	0.00	30.200 
22:00	47.4	47.4	47.4	56	32.5	0	0	---	0.00	30.201 
22:05	47.1	47.1	47.1	57	32.7	0	0	---	0.00	30.201 
22:10	47.1	47.1	47.1	58	33.1	0	0	---	0.00	30.201 
22:15	47.0	47.0	47.0	58	33.0	0	0	---	0.00	30.197 
22:20	46.7	46.7	46.7	59	33.1	0	0	---	0.00	30.197 
22:25	46.4	46.4	46.4	59	32.9	0	0	---	0.00	30.197 
22:30	46.1	46.1	46.1	59	32.6	0	0	---	0.00	30.196 
22:35	45.8	45.8	45.8	60	32.7	0	0	---	0.00	30.196 
22:40	45.5	45.5	45.5	60	32.4	0	0	---	0.00	30.196 
22:45	45.4	45.4	45.4	61	32.7	0	0	---	0.00	30.197 
22:50	45.1	45.1	45.1	62	32.9	0	0	---	0.00	30.197 
22:55	44.9	44.9	44.9	63	33.1	0	0	---	0.00	30.197 
23:00	44.8	44.8	44.8	65	33.8	0	0	---	0.00	30.198 
23:05	44.5	44.5	44.5	66	33.9	0	0	---	0.00	30.198 
23:10	44.3	44.3	44.3	68	34.4	0	0	---	0.00	30.198 
23:15	44.1	44.1	44.1	69	34.6	0	0	---	0.00	30.196 
23:20	43.9	43.9	43.9	69	34.4	0	0	---	0.00	30.196 
23:25	43.6	43.6	43.6	70	34.5	0	0	---	0.00	30.196 
23:30	43.5	43.5	43.5	70	34.4	0	0	---	0.00	30.198 
23:35	43.3	43.3	43.3	71	34.5	0	0	---	0.00	30.198 
23:40	43.1	43.1	43.1	71	34.3	0	0	---	0.00	30.198 
23:45	42.9	42.9	42.9	71	34.2	0	0	---	0.00	30.199 
23:50	42.8	42.8	42.8	72	34.4	0	0	---	0.00	30.199 
23:55	42.6	42.6	42.6	72	34.2	0	0	---	0.00	30.199 

CoCoRaHS
IN-AL-39
A2 Web Hosting
Creative Commons License
GoDaddy
search engine by freefind advanced

loaded 2018-11-16 23:17:26 • last modified 2010-11-18 10:43:29
Privacy PolicyDisclaimer
• wx.awcolley.com is powered by PmWiki v.2002016 •
• all content (unless otherwise noted) © 2018 A W Colley